createdAt,value
2018-05-11T00:00:07.248Z,3.50
2018-05-11T00:02:34.724Z,3.73
2018-05-11T00:05:02.171Z,2.17
2018-05-11T00:07:29.724Z,2.53
2018-05-11T00:09:57.274Z,3.63
2018-05-11T00:12:24.735Z,2.33
2018-05-11T00:14:52.186Z,5.67
2018-05-11T00:17:19.635Z,3.73
2018-05-11T00:19:47.079Z,4.63
2018-05-11T00:22:14.828Z,3.80
2018-05-11T00:24:42.287Z,3.13
2018-05-11T00:27:09.748Z,3.97
2018-05-11T00:29:37.191Z,6.10
2018-05-11T00:32:04.679Z,2.10
2018-05-11T00:34:32.120Z,3.77
2018-05-11T00:36:59.579Z,2.47
2018-05-11T00:39:27.104Z,3.80
2018-05-11T00:41:54.599Z,3.30
2018-05-11T00:44:22.161Z,3.00
2018-05-11T00:46:49.719Z,3.83
2018-05-11T00:49:17.188Z,3.03
2018-05-11T00:51:44.739Z,2.50
2018-05-11T00:54:12.200Z,2.13
2018-05-11T00:56:39.695Z,4.57
2018-05-11T00:59:07.142Z,3.43
2018-05-11T01:01:35.369Z,3.13
2018-05-11T01:04:02.829Z,3.27
2018-05-11T01:06:30.283Z,3.07
2018-05-11T01:08:57.738Z,2.83
2018-05-11T01:11:25.180Z,1.40
2018-05-11T01:13:52.672Z,3.63
2018-05-11T01:16:20.212Z,3.53
2018-05-11T01:18:47.766Z,2.27
2018-05-11T01:21:15.211Z,2.40
2018-05-11T01:23:42.667Z,3.73
2018-05-11T01:26:10.113Z,2.80
2018-05-11T01:28:37.567Z,2.40
2018-05-11T01:31:05.032Z,3.17
2018-05-11T01:33:32.499Z,3.70
2018-05-11T01:35:59.955Z,1.40
2018-05-11T01:38:27.418Z,4.03
2018-05-11T01:40:54.859Z,2.80
2018-05-11T01:43:22.316Z,2.80
2018-05-11T01:45:49.762Z,2.30
2018-05-11T01:48:17.244Z,2.47
2018-05-11T01:50:44.763Z,1.93
2018-05-11T01:53:12.240Z,2.33
2018-05-11T01:55:39.696Z,2.50
2018-05-11T01:58:07.156Z,3.90
2018-05-11T02:00:34.616Z,3.93
2018-05-11T02:03:02.180Z,3.03
2018-05-11T02:05:29.736Z,3.13
2018-05-11T02:07:57.200Z,3.90
2018-05-11T02:10:24.736Z,2.77
2018-05-11T02:12:52.274Z,3.00
2018-05-11T02:15:19.728Z,3.83
2018-05-11T02:17:47.219Z,2.03
2018-05-11T02:20:14.667Z,1.60
2018-05-11T02:22:42.139Z,2.23
2018-05-11T02:25:09.635Z,2.20
2018-05-11T02:27:37.090Z,2.87
2018-05-11T02:30:05.336Z,3.60
2018-05-11T02:32:33.566Z,1.43
2018-05-11T02:35:01.023Z,3.07
2018-05-11T02:37:28.506Z,2.60
2018-05-11T02:39:56.071Z,2.70
2018-05-11T02:42:23.523Z,1.83
2018-05-11T02:44:51.092Z,2.37
2018-05-11T02:47:18.636Z,2.50
2018-05-11T02:49:46.195Z,2.73
2018-05-11T02:52:13.757Z,2.60
2018-05-11T02:54:41.323Z,2.63
2018-05-11T02:57:08.934Z,2.43
2018-05-11T02:59:37.248Z,5.67
2018-05-11T03:02:04.702Z,3.90
2018-05-11T03:04:32.173Z,3.57
2018-05-11T03:06:59.634Z,2.50
2018-05-11T03:09:27.183Z,1.97
2018-05-11T03:11:54.619Z,5.70
2018-05-11T03:14:22.071Z,3.47
2018-05-11T03:16:49.610Z,2.57
2018-05-11T03:19:17.061Z,1.93
2018-05-11T03:21:44.551Z,2.97
2018-05-11T03:24:12.007Z,1.90
2018-05-11T03:26:39.454Z,1.63
2018-05-11T03:29:07.008Z,2.30
2018-05-11T03:31:34.452Z,3.00
2018-05-11T03:34:02.000Z,2.70
2018-05-11T03:36:29.491Z,1.73
2018-05-11T03:38:57.043Z,2.23
2018-05-11T03:41:24.527Z,1.63
2018-05-11T03:43:52.848Z,3.43
2018-05-11T03:46:20.279Z,2.77
2018-05-11T03:48:47.735Z,1.97
2018-05-11T03:51:15.183Z,1.37
2018-05-11T03:53:43.411Z,1.70
2018-05-11T03:56:10.871Z,2.07
2018-05-11T03:58:38.327Z,3.43
2018-05-11T04:01:17.726Z,2.07
2018-05-11T04:03:57.214Z,2.90
2018-05-11T04:06:36.531Z,2.30
2018-05-11T04:09:03.990Z,2.43
2018-05-11T04:11:31.551Z,1.70
2018-05-11T04:13:59.110Z,2.70
2018-05-11T04:16:27.387Z,1.70
2018-05-11T04:18:54.847Z,2.20
2018-05-11T04:21:22.395Z,4.47
2018-05-11T04:23:49.955Z,3.07
2018-05-11T04:26:17.413Z,6.07
2018-05-11T04:28:44.868Z,2.87
2018-05-11T04:31:12.432Z,5.87
2018-05-11T04:33:39.995Z,2.87
2018-05-11T04:36:07.446Z,2.93
2018-05-11T04:38:34.892Z,4.03
2018-05-11T04:41:03.387Z,2.33
2018-05-11T04:43:30.836Z,3.83
2018-05-11T04:45:58.294Z,2.07
2018-05-11T04:48:25.861Z,3.50
2018-05-11T04:50:53.473Z,3.53
2018-05-11T04:53:20.923Z,4.37
2018-05-11T04:55:48.374Z,3.43
2018-05-11T04:58:15.836Z,3.07
2018-05-11T05:00:43.281Z,4.70
2018-05-11T05:03:10.792Z,5.13
2018-05-11T05:05:38.353Z,6.20
2018-05-11T05:08:05.973Z,4.83
2018-05-11T05:10:33.434Z,6.17
2018-05-11T05:13:00.871Z,4.37
2018-05-11T05:15:28.362Z,4.73
2018-05-11T05:17:55.826Z,4.87
2018-05-11T05:20:23.383Z,5.53
2018-05-11T05:22:50.951Z,3.13
2018-05-11T05:25:18.532Z,7.43
2018-05-11T05:27:46.770Z,4.80
2018-05-11T05:30:14.223Z,3.70
2018-05-11T05:32:41.699Z,3.17
2018-05-11T05:35:09.248Z,4.93
2018-05-11T05:37:36.699Z,7.87
2018-05-11T05:40:04.147Z,4.37
2018-05-11T05:42:31.611Z,5.77
2018-05-11T05:44:59.168Z,5.07
2018-05-11T05:47:26.627Z,3.37
2018-05-11T05:49:54.188Z,4.30
2018-05-11T05:52:21.631Z,4.27
2018-05-11T05:54:49.091Z,4.93
2018-05-11T05:57:16.538Z,5.17
2018-05-11T05:59:44.007Z,3.93
2018-05-11T06:02:11.455Z,6.57
2018-05-11T06:04:39.015Z,6.00
2018-05-11T06:07:06.478Z,6.07
2018-05-11T06:09:34.044Z,3.37
2018-05-11T06:12:01.595Z,7.23
2018-05-11T06:14:29.155Z,5.00
2018-05-11T06:16:56.714Z,13.67
2018-05-11T06:19:24.161Z,6.77
2018-05-11T06:21:52.729Z,7.57
2018-05-11T06:24:20.215Z,7.73
2018-05-11T06:26:47.759Z,4.50
2018-05-11T06:29:15.211Z,6.93
2018-05-11T06:31:42.782Z,4.50
2018-05-11T06:34:10.227Z,6.93
2018-05-11T06:36:37.792Z,4.23
2018-05-11T06:39:06.168Z,8.30
2018-05-11T06:41:33.619Z,7.63
2018-05-11T06:44:01.063Z,6.40
2018-05-11T06:46:28.531Z,5.03
2018-05-11T06:48:55.983Z,7.60
2018-05-11T06:51:23.543Z,10.57
2018-05-11T06:53:51.023Z,7.00
2018-05-11T06:56:18.473Z,7.40
2018-05-11T06:58:45.919Z,5.93
2018-05-11T07:01:13.474Z,8.23
2018-05-11T07:03:41.060Z,9.53
2018-05-11T07:06:09.278Z,8.60
2018-05-11T07:08:36.719Z,8.27
2018-05-11T07:11:04.215Z,11.03
2018-05-11T07:13:31.663Z,8.23
2018-05-11T07:15:59.121Z,9.80
2018-05-11T07:18:26.571Z,7.50
2018-05-11T07:20:54.023Z,4.90
2018-05-11T07:23:21.471Z,6.13
2018-05-11T07:25:48.985Z,6.23
2018-05-11T07:28:16.396Z,6.33
2018-05-11T07:30:43.855Z,6.20
2018-05-11T07:33:11.327Z,5.03
2018-05-11T07:35:38.875Z,4.37
2018-05-11T07:38:06.345Z,3.73
2018-05-11T07:40:33.904Z,4.70
2018-05-11T07:43:01.446Z,8.33
2018-05-11T07:45:28.999Z,4.80
2018-05-11T07:47:56.571Z,4.60
2018-05-11T07:50:25.741Z,8.07
2018-05-11T07:52:53.183Z,5.63
2018-05-11T07:55:20.667Z,5.63
2018-05-11T07:57:48.503Z,2.47
2018-05-11T08:00:16.063Z,3.33
2018-05-11T08:02:43.546Z,3.50
2018-05-11T08:05:11.004Z,4.03
2018-05-11T08:07:38.567Z,4.67
2018-05-11T08:10:06.124Z,5.90
2018-05-11T08:12:33.588Z,7.93
2018-05-11T08:15:01.032Z,2.77
2018-05-11T08:17:28.491Z,8.77
2018-05-11T08:19:55.935Z,5.03
2018-05-11T08:22:23.394Z,4.83
2018-05-11T08:24:50.839Z,3.80
2018-05-11T08:27:18.308Z,6.93
2018-05-11T08:29:45.836Z,2.60
2018-05-11T08:32:13.279Z,5.17
2018-05-11T08:34:40.727Z,4.00
2018-05-11T08:37:08.187Z,3.83
2018-05-11T08:39:35.635Z,3.20
2018-05-11T08:42:03.095Z,2.23
2018-05-11T08:44:30.599Z,3.50
2018-05-11T08:46:58.154Z,4.27
2018-05-11T08:49:25.602Z,1.60
2018-05-11T08:51:53.064Z,2.13
2018-05-11T08:54:20.532Z,2.07
2018-05-11T08:56:48.088Z,2.43
2018-05-11T08:59:15.535Z,1.57
2018-05-11T09:01:42.991Z,2.33
2018-05-11T09:04:10.435Z,4.20
2018-05-11T09:06:37.895Z,3.27
2018-05-11T09:09:05.339Z,2.57
2018-05-11T09:11:32.819Z,4.07
2018-05-11T09:14:00.267Z,2.57
2018-05-11T09:16:27.732Z,3.13
2018-05-11T09:18:55.202Z,3.80
2018-05-11T09:21:22.701Z,11.17
2018-05-11T09:23:50.099Z,8.80
2018-05-11T09:26:17.554Z,7.20
2018-05-11T09:28:45.003Z,11.67
2018-05-11T09:31:12.575Z,16.33
2018-05-11T09:33:40.024Z,9.20
2018-05-11T09:36:07.483Z,18.10
2018-05-11T09:38:34.947Z,12.80
2018-05-11T09:41:02.400Z,17.27
2018-05-11T09:43:29.951Z,9.50
2018-05-11T09:45:57.411Z,6.93
2018-05-11T09:48:24.963Z,9.00
2018-05-11T09:50:52.522Z,15.77
2018-05-11T09:53:19.979Z,14.60
2018-05-11T09:55:47.538Z,11.90
2018-05-11T09:58:14.995Z,8.60
2018-05-11T10:00:42.593Z,7.93
2018-05-11T10:03:10.107Z,7.00
2018-05-11T10:05:37.667Z,12.80
2018-05-11T10:08:05.227Z,13.17
2018-05-11T10:10:32.672Z,8.30
2018-05-11T10:13:00.128Z,8.30
2018-05-11T10:15:27.582Z,8.73
2018-05-11T10:17:55.040Z,3.77
2018-05-11T10:20:22.502Z,5.80
2018-05-11T10:22:49.977Z,5.63
2018-05-11T10:25:17.425Z,6.63
2018-05-11T10:27:44.979Z,7.40
2018-05-11T10:30:13.964Z,7.33
2018-05-11T10:32:41.416Z,7.33
2018-05-11T10:35:08.867Z,6.20
2018-05-11T10:37:36.313Z,6.67
2018-05-11T10:40:03.759Z,5.67
2018-05-11T10:42:31.234Z,5.63
2018-05-11T10:44:58.675Z,6.30
2018-05-11T10:47:26.151Z,4.30
2018-05-11T10:49:53.607Z,3.87
2018-05-11T10:52:21.164Z,4.33
2018-05-11T10:54:48.611Z,5.43
2018-05-11T10:57:16.068Z,4.07
2018-05-11T10:59:43.539Z,5.83
2018-05-11T11:02:10.995Z,4.70
2018-05-11T11:04:38.559Z,4.17
2018-05-11T11:07:06.003Z,5.10
2018-05-11T11:09:33.451Z,3.53
2018-05-11T11:12:01.028Z,3.50
2018-05-11T11:14:28.478Z,2.63
2018-05-11T11:16:55.927Z,2.47
2018-05-11T11:19:23.501Z,3.90
2018-05-11T11:21:51.039Z,4.77
2018-05-11T11:24:18.607Z,4.03
2018-05-11T11:26:46.056Z,2.30
2018-05-11T11:29:13.511Z,3.63
2018-05-11T11:31:40.975Z,5.50
2018-05-11T11:34:08.426Z,3.00
2018-05-11T11:36:36.019Z,4.87
2018-05-11T11:39:04.259Z,2.50
2018-05-11T11:41:31.819Z,4.30
2018-05-11T11:43:59.278Z,2.43
2018-05-11T11:46:26.731Z,4.70
2018-05-11T11:48:54.193Z,3.80
2018-05-11T11:51:22.403Z,3.80
2018-05-11T11:53:49.859Z,2.73
2018-05-11T11:56:17.313Z,2.27
2018-05-11T11:58:45.559Z,5.43
2018-05-11T12:01:13.099Z,4.33
2018-05-11T12:03:40.551Z,4.40
2018-05-11T12:06:08.008Z,2.87
2018-05-11T12:08:35.463Z,3.70
2018-05-11T12:11:02.911Z,3.20
2018-05-11T12:13:30.372Z,2.50
2018-05-11T12:15:57.819Z,3.80
2018-05-11T12:18:25.293Z,5.03
2018-05-11T12:20:52.843Z,2.60
2018-05-11T12:23:20.304Z,5.83
2018-05-11T12:25:47.859Z,5.00
2018-05-11T12:28:15.420Z,3.80
2018-05-11T12:30:42.860Z,2.53
2018-05-11T12:33:10.310Z,2.37
2018-05-11T12:35:37.759Z,3.93
2018-05-11T12:38:05.219Z,3.67
2018-05-11T12:40:32.691Z,4.17
2018-05-11T12:43:00.263Z,6.87
2018-05-11T12:45:27.817Z,4.47
2018-05-11T12:47:55.275Z,5.63
2018-05-11T12:50:22.823Z,12.27
2018-05-11T12:52:50.390Z,7.73
2018-05-11T12:55:17.831Z,9.77
2018-05-11T12:57:45.375Z,12.80
2018-05-11T13:00:12.851Z,8.73
2018-05-11T13:02:41.023Z,9.70
2018-05-11T13:05:08.587Z,10.87
2018-05-11T13:07:36.150Z,11.00
2018-05-11T13:10:03.615Z,7.03
2018-05-11T13:12:31.055Z,8.27
2018-05-11T13:14:58.611Z,5.80
2018-05-11T13:17:26.058Z,14.00
2018-05-11T13:19:53.511Z,5.07
2018-05-11T13:22:20.979Z,8.73
2018-05-11T13:24:48.507Z,9.27
2018-05-11T13:27:15.958Z,6.23
2018-05-11T13:29:43.415Z,3.80
2018-05-11T13:32:10.863Z,6.50
2018-05-11T13:34:38.331Z,7.90
2018-05-11T13:37:05.775Z,6.43
2018-05-11T13:39:33.231Z,4.23
2018-05-11T13:42:00.745Z,4.57
2018-05-11T13:44:28.179Z,9.43
2018-05-11T13:46:55.635Z,13.30
2018-05-11T13:49:23.144Z,11.30
2018-05-11T13:51:50.543Z,3.73
2018-05-11T13:54:18.107Z,4.20
2018-05-11T13:56:45.563Z,5.40
2018-05-11T13:59:13.122Z,6.00
2018-05-11T14:01:40.567Z,3.30
2018-05-11T14:04:08.033Z,1.80
2018-05-11T14:06:35.482Z,1.63
2018-05-11T14:09:02.943Z,2.93
2018-05-11T14:11:30.407Z,2.07
2018-05-11T14:13:57.959Z,7.20
2018-05-11T14:16:25.408Z,3.10
2018-05-11T14:18:52.858Z,4.20
2018-05-11T14:21:20.407Z,4.27
2018-05-11T14:23:48.014Z,2.67
2018-05-11T14:26:15.459Z,1.87
2018-05-11T14:28:42.935Z,2.00
2018-05-11T14:31:11.143Z,1.90
2018-05-11T14:33:38.594Z,2.57
2018-05-11T14:36:06.058Z,2.37
2018-05-11T14:38:33.551Z,3.97
2018-05-11T14:41:01.027Z,3.00
2018-05-11T14:43:29.240Z,3.10
2018-05-11T14:45:56.690Z,3.63
2018-05-11T14:48:24.135Z,6.53
2018-05-11T14:50:51.645Z,4.00
2018-05-11T14:53:19.196Z,1.77
2018-05-11T14:55:46.668Z,4.60
2018-05-11T14:58:14.207Z,6.03
2018-05-11T15:00:41.735Z,3.23
2018-05-11T15:03:09.184Z,2.43
2018-05-11T15:05:36.751Z,4.67
2018-05-11T15:08:04.240Z,3.10
2018-05-11T15:10:31.695Z,2.60
2018-05-11T15:12:59.152Z,4.43
2018-05-11T15:15:26.721Z,2.57
2018-05-11T15:17:54.154Z,1.93
2018-05-11T15:20:21.606Z,4.73
2018-05-11T15:22:49.086Z,4.63
2018-05-11T15:25:16.631Z,3.83
2018-05-11T15:27:44.089Z,4.20
2018-05-11T15:30:11.646Z,7.00
2018-05-11T15:32:39.091Z,3.47
2018-05-11T15:35:06.543Z,4.13
2018-05-11T15:37:33.991Z,6.53
2018-05-11T15:40:01.468Z,3.40
2018-05-11T15:42:28.923Z,8.17
2018-05-11T15:44:56.385Z,3.40
2018-05-11T15:47:23.943Z,5.73
2018-05-11T15:49:51.617Z,7.03
2018-05-11T15:52:19.229Z,3.23
2018-05-11T15:54:46.682Z,3.17
2018-05-11T15:57:14.172Z,7.30
2018-05-11T15:59:43.943Z,4.33
2018-05-11T16:02:11.433Z,5.10
2018-05-11T16:04:38.999Z,2.40
2018-05-11T16:07:06.470Z,5.10
2018-05-11T16:09:35.446Z,3.13
2018-05-11T16:12:02.891Z,3.20
2018-05-11T16:14:30.335Z,3.03
2018-05-11T16:16:57.802Z,6.70
2018-05-11T16:19:25.327Z,1.73
2018-05-11T16:21:52.731Z,2.67
2018-05-11T16:24:20.776Z,5.50
2018-05-11T16:26:48.253Z,4.83
2018-05-11T16:29:16.841Z,5.60
2018-05-11T16:31:45.544Z,4.70
2018-05-11T16:34:13.429Z,2.87
2018-05-11T16:36:41.662Z,4.10
2018-05-11T16:39:09.110Z,3.33
2018-05-11T16:41:36.666Z,6.53
2018-05-11T16:44:04.120Z,2.57
2018-05-11T16:46:31.583Z,4.70
2018-05-11T16:48:59.032Z,8.27
2018-05-11T16:51:26.499Z,6.80
2018-05-11T16:53:53.947Z,3.47
2018-05-11T16:56:21.579Z,4.83
2018-05-11T16:58:49.052Z,3.00
2018-05-11T17:01:16.508Z,4.53
2018-05-11T17:03:43.978Z,3.97
2018-05-11T17:06:11.435Z,3.67
2018-05-11T17:08:38.889Z,2.90
2018-05-11T17:11:06.354Z,2.30
2018-05-11T17:13:33.798Z,3.63
2018-05-11T17:16:01.359Z,2.17
2018-05-11T17:18:28.892Z,3.70
2018-05-11T17:20:56.370Z,4.50
2018-05-11T17:23:23.831Z,3.77
2018-05-11T17:25:51.359Z,3.60
2018-05-11T17:28:18.816Z,4.37
2018-05-11T17:30:46.308Z,4.47
2018-05-11T17:33:13.862Z,2.57
2018-05-11T17:35:41.338Z,4.60
2018-05-11T17:38:08.866Z,9.73
2018-05-11T17:40:36.319Z,6.97
2018-05-11T17:43:03.763Z,5.20
2018-05-11T17:45:31.215Z,7.65
2018-05-11T17:47:58.767Z,6.83
2018-05-11T17:50:26.250Z,4.43
2018-05-11T17:52:53.740Z,8.03
2018-05-11T17:55:21.985Z,3.60
2018-05-11T17:57:49.435Z,7.17
2018-05-11T18:00:16.901Z,8.07
2018-05-11T18:02:44.343Z,5.30
2018-05-11T18:05:11.786Z,7.97
2018-05-11T18:07:39.247Z,2.80
2018-05-11T18:10:06.722Z,5.67
2018-05-11T18:12:34.140Z,3.73
2018-05-11T18:15:01.627Z,5.67
2018-05-11T18:17:29.195Z,7.00
2018-05-11T18:19:56.638Z,4.23
2018-05-11T18:22:24.096Z,7.80
2018-05-11T18:24:51.544Z,5.00
2018-05-11T18:27:19.015Z,7.90
2018-05-11T18:29:46.463Z,5.07
2018-05-11T18:32:13.916Z,7.97
2018-05-11T18:34:41.363Z,7.60
2018-05-11T18:37:08.819Z,3.73
2018-05-11T18:39:36.312Z,3.70
2018-05-11T18:42:04.554Z,11.43
2018-05-11T18:44:32.011Z,5.73
2018-05-11T18:46:59.507Z,9.73
2018-05-11T18:49:26.927Z,6.00
2018-05-11T18:51:54.387Z,5.47
2018-05-11T18:54:22.055Z,6.33
2018-05-11T18:56:49.291Z,3.83
2018-05-11T18:59:16.756Z,7.00
2018-05-11T19:01:44.333Z,4.03
2018-05-11T19:04:11.787Z,4.97
2018-05-11T19:06:39.335Z,4.10
2018-05-11T19:09:06.824Z,3.77
2018-05-11T19:11:34.351Z,2.60
2018-05-11T19:14:01.907Z,2.33
2018-05-11T19:16:29.363Z,4.97
2018-05-11T19:18:56.809Z,6.50
2018-05-11T19:21:24.263Z,4.30
2018-05-11T19:23:51.715Z,6.67
2018-05-11T19:26:19.178Z,6.73
2018-05-11T19:28:46.632Z,3.17
2018-05-11T19:31:14.075Z,4.97
2018-05-11T19:33:41.531Z,6.50
2018-05-11T19:36:08.980Z,5.37
2018-05-11T19:38:36.435Z,8.27
2018-05-11T19:41:03.915Z,5.37
2018-05-11T19:43:31.451Z,9.87
2018-05-11T19:45:58.932Z,7.90
2018-05-11T19:48:26.563Z,5.10
2018-05-11T19:50:53.931Z,4.33
2018-05-11T19:53:21.400Z,5.37
2018-05-11T19:55:48.858Z,4.87
2018-05-11T19:58:16.303Z,3.83
2018-05-11T20:00:43.746Z,3.30
2018-05-11T20:03:11.215Z,3.33
2018-05-11T20:05:38.691Z,3.73
2018-05-11T20:08:07.671Z,3.30
2018-05-11T20:10:35.132Z,4.63
2018-05-11T20:13:02.577Z,5.17
2018-05-11T20:15:30.027Z,3.13
2018-05-11T20:17:57.486Z,4.63
2018-05-11T20:20:24.942Z,4.33
2018-05-11T20:22:52.515Z,3.80
2018-05-11T20:25:19.967Z,4.63
2018-05-11T20:27:47.426Z,4.87
2018-05-11T20:30:14.887Z,3.50
2018-05-11T20:32:42.390Z,4.43
2018-05-11T20:35:09.847Z,4.17
2018-05-11T20:37:37.254Z,4.30
2018-05-11T20:40:04.799Z,5.10
2018-05-11T20:42:32.360Z,3.30
2018-05-11T20:44:59.799Z,4.50
2018-05-11T20:47:27.272Z,1.63
2018-05-11T20:49:55.115Z,6.07
2018-05-11T20:52:22.765Z,2.23
2018-05-11T20:54:50.321Z,3.70
2018-05-11T20:57:17.774Z,3.13
2018-05-11T20:59:45.235Z,3.63
2018-05-11T21:02:13.352Z,3.87
2018-05-11T21:04:40.800Z,6.67
2018-05-11T21:07:08.254Z,3.23
2018-05-11T21:09:35.786Z,3.23
2018-05-11T21:12:03.223Z,3.50
2018-05-11T21:14:31.569Z,3.23
2018-05-11T21:16:59.779Z,4.67
2018-05-11T21:19:27.236Z,4.10
2018-05-11T21:21:54.821Z,6.63
2018-05-11T21:24:22.275Z,5.20
2018-05-11T21:26:49.719Z,4.03
2018-05-11T21:29:17.171Z,4.60
2018-05-11T21:31:44.619Z,3.70
2018-05-11T21:34:12.172Z,7.17
2018-05-11T21:36:40.710Z,2.87
2018-05-11T21:39:08.175Z,3.83
2018-05-11T21:41:36.687Z,5.73
2018-05-11T21:44:04.148Z,3.40
2018-05-11T21:46:32.623Z,6.07
2018-05-11T21:49:00.119Z,7.10
2018-05-11T21:51:28.545Z,7.73
2018-05-11T21:53:56.043Z,8.13
2018-05-11T21:56:23.506Z,4.33
2018-05-11T21:58:51.059Z,4.83
2018-05-11T22:01:18.508Z,8.70
2018-05-11T22:03:45.973Z,7.17
2018-05-11T22:06:13.422Z,6.70
2018-05-11T22:08:40.982Z,5.97
2018-05-11T22:11:08.439Z,7.83
2018-05-11T22:13:35.994Z,6.57
2018-05-11T22:16:03.347Z,8.57
2018-05-11T22:18:30.804Z,5.43
2018-05-11T22:20:58.253Z,6.00
2018-05-11T22:23:25.732Z,4.63
2018-05-11T22:25:53.287Z,7.77
2018-05-11T22:28:20.740Z,5.33
2018-05-11T22:30:48.199Z,6.57
2018-05-11T22:33:15.752Z,4.50
2018-05-11T22:35:43.308Z,6.40
2018-05-11T22:38:10.863Z,4.37
2018-05-11T22:40:38.324Z,3.43
2018-05-11T22:43:05.779Z,6.83
2018-05-11T22:45:33.350Z,5.50
2018-05-11T22:48:01.567Z,2.97
2018-05-11T22:50:29.060Z,2.90
2018-05-11T22:52:56.512Z,2.33
2018-05-11T22:55:23.982Z,1.90
2018-05-11T22:57:51.427Z,3.17
2018-05-11T23:00:37.699Z,6.50
2018-05-11T23:03:05.168Z,1.67
2018-05-11T23:05:32.614Z,4.03
2018-05-11T23:08:00.060Z,5.10
2018-05-11T23:10:27.515Z,4.53
2018-05-11T23:12:55.031Z,3.17
2018-05-11T23:15:23.275Z,2.63
2018-05-11T23:17:50.764Z,3.00
2018-05-11T23:20:18.291Z,3.17
2018-05-11T23:22:45.751Z,3.33
2018-05-11T23:25:13.303Z,3.50
2018-05-11T23:27:40.844Z,2.57
2018-05-11T23:30:08.322Z,3.03
2018-05-11T23:32:35.779Z,3.90
2018-05-11T23:35:03.503Z,4.00
2018-05-11T23:37:30.965Z,5.63
2018-05-11T23:39:58.452Z,4.50
2018-05-11T23:42:25.894Z,2.77
2018-05-11T23:44:53.360Z,1.73
2018-05-11T23:47:22.048Z,2.87
2018-05-11T23:49:49.551Z,2.73
2018-05-11T23:52:16.959Z,2.13
2018-05-11T23:54:44.410Z,4.93
2018-05-11T23:57:11.869Z,2.87
2018-05-11T23:59:39.335Z,2.73
